sensor_id;sensor_type;location;lat;lon;timestamp;P1;durP1;ratioP1;P2;durP2;ratioP2
20655;SDS011;10487;53.320;8.672;2023-03-04T00:00:30;0.10;;;0.10;;
20655;SDS011;10487;53.320;8.672;2023-03-04T00:03:31;0.10;;;0.10;;
20655;SDS011;10487;53.320;8.672;2023-03-04T00:06:33;0.10;;;0.10;;
20655;SDS011;10487;53.320;8.672;2023-03-04T00:09:35;0.10;;;0.10;;
20655;SDS011;10487;53.320;8.672;2023-03-04T00:12:36;0.10;;;0.10;;
20655;SDS011;10487;53.320;8.672;2023-03-04T00:15:38;0.10;;;0.10;;
20655;SDS011;10487;53.320;8.672;2023-03-04T00:18:40;0.20;;;0.20;;
20655;SDS011;10487;53.320;8.672;2023-03-04T00:21:42;0.10;;;0.10;;
20655;SDS011;10487;53.320;8.672;2023-03-04T00:24:43;0.10;;;0.10;;
20655;SDS011;10487;53.320;8.672;2023-03-04T00:27:45;1.10;;;0.20;;
20655;SDS011;10487;53.320;8.672;2023-03-04T00:30:47;0.38;;;0.38;;
20655;SDS011;10487;53.320;8.672;2023-03-04T00:33:49;0.32;;;0.10;;
20655;SDS011;10487;53.320;8.672;2023-03-04T00:36:50;0.28;;;0.20;;
20655;SDS011;10487;53.320;8.672;2023-03-04T00:39:52;0.28;;;0.20;;
20655;SDS011;10487;53.320;8.672;2023-03-04T00:42:53;0.10;;;0.10;;
20655;SDS011;10487;53.320;8.672;2023-03-04T00:45:55;0.17;;;0.17;;
20655;SDS011;10487;53.320;8.672;2023-03-04T00:48:57;0.20;;;0.10;;
20655;SDS011;10487;53.320;8.672;2023-03-04T00:51:58;0.20;;;0.20;;
20655;SDS011;10487;53.320;8.672;2023-03-04T00:55:00;0.20;;;0.20;;
20655;SDS011;10487;53.320;8.672;2023-03-04T00:58:01;0.10;;;0.10;;
20655;SDS011;10487;53.320;8.672;2023-03-04T01:01:03;0.28;;;0.20;;
20655;SDS011;10487;53.320;8.672;2023-03-04T01:04:05;0.10;;;0.10;;
20655;SDS011;10487;53.320;8.672;2023-03-04T01:07:07;0.10;;;0.10;;
20655;SDS011;10487;53.320;8.672;2023-03-04T01:10:10;0.10;;;0.10;;
20655;SDS011;10487;53.320;8.672;2023-03-04T01:13:12;0.10;;;0.10;;
20655;SDS011;10487;53.320;8.672;2023-03-04T01:16:14;0.10;;;0.10;;
20655;SDS011;10487;53.320;8.672;2023-03-04T01:19:15;0.17;;;0.10;;
20655;SDS011;10487;53.320;8.672;2023-03-04T01:22:17;0.10;;;0.10;;
20655;SDS011;10487;53.320;8.672;2023-03-04T01:25:19;0.10;;;0.10;;
20655;SDS011;10487;53.320;8.672;2023-03-04T01:28:20;0.20;;;0.20;;
20655;SDS011;10487;53.320;8.672;2023-03-04T01:31:22;0.20;;;0.20;;
20655;SDS011;10487;53.320;8.672;2023-03-04T01:34:24;0.20;;;0.20;;
20655;SDS011;10487;53.320;8.672;2023-03-04T01:37:25;0.20;;;0.20;;
20655;SDS011;10487;53.320;8.672;2023-03-04T01:40:27;0.20;;;0.20;;
20655;SDS011;10487;53.320;8.672;2023-03-04T01:43:29;0.13;;;0.13;;
20655;SDS011;10487;53.320;8.672;2023-03-04T01:46:31;0.10;;;0.10;;
20655;SDS011;10487;53.320;8.672;2023-03-04T01:49:33;0.10;;;0.10;;
20655;SDS011;10487;53.320;8.672;2023-03-04T01:52:35;0.45;;;0.20;;
20655;SDS011;10487;53.320;8.672;2023-03-04T01:55:38;0.20;;;0.20;;
20655;SDS011;10487;53.320;8.672;2023-03-04T01:58:40;0.20;;;0.20;;
20655;SDS011;10487;53.320;8.672;2023-03-04T02:01:43;0.10;;;0.10;;
20655;SDS011;10487;53.320;8.672;2023-03-04T02:04:47;0.10;;;0.10;;
20655;SDS011;10487;53.320;8.672;2023-03-04T02:07:49;0.20;;;0.20;;
20655;SDS011;10487;53.320;8.672;2023-03-04T02:10:53;0.47;;;0.20;;
20655;SDS011;10487;53.320;8.672;2023-03-04T02:13:55;0.20;;;0.20;;
20655;SDS011;10487;53.320;8.672;2023-03-04T02:16:57;0.73;;;0.10;;
20655;SDS011;10487;53.320;8.672;2023-03-04T02:23:25;0.10;;;0.10;;
20655;SDS011;10487;53.320;8.672;2023-03-04T02:26:35;0.47;;;0.20;;
20655;SDS011;10487;53.320;8.672;2023-03-04T02:29:37;0.10;;;0.10;;
20655;SDS011;10487;53.320;8.672;2023-03-04T02:32:39;0.10;;;0.10;;
20655;SDS011;10487;53.320;8.672;2023-03-04T02:35:41;0.20;;;0.20;;
20655;SDS011;10487;53.320;8.672;2023-03-04T02:38:42;0.10;;;0.10;;
20655;SDS011;10487;53.320;8.672;2023-03-04T02:41:44;0.10;;;0.10;;
20655;SDS011;10487;53.320;8.672;2023-03-04T02:44:58;0.20;;;0.20;;
20655;SDS011;10487;53.320;8.672;2023-03-04T02:48:01;0.25;;;0.10;;
20655;SDS011;10487;53.320;8.672;2023-03-04T02:51:03;0.10;;;0.10;;
20655;SDS011;10487;53.320;8.672;2023-03-04T02:54:12;0.20;;;0.20;;
20655;SDS011;10487;53.320;8.672;2023-03-04T02:57:18;0.10;;;0.10;;
20655;SDS011;10487;53.320;8.672;2023-03-04T03:00:20;0.20;;;0.20;;
20655;SDS011;10487;53.320;8.672;2023-03-04T03:03:22;0.20;;;0.20;;
20655;SDS011;10487;53.320;8.672;2023-03-04T03:06:23;0.32;;;0.10;;
20655;SDS011;10487;53.320;8.672;2023-03-04T03:09:25;0.20;;;0.20;;
20655;SDS011;10487;53.320;8.672;2023-03-04T03:12:27;0.10;;;0.10;;
20655;SDS011;10487;53.320;8.672;2023-03-04T03:15:28;0.20;;;0.20;;
20655;SDS011;10487;53.320;8.672;2023-03-04T03:18:30;0.10;;;0.10;;
20655;SDS011;10487;53.320;8.672;2023-03-04T03:21:31;0.10;;;0.10;;
20655;SDS011;10487;53.320;8.672;2023-03-04T03:24:33;0.10;;;0.10;;
20655;SDS011;10487;53.320;8.672;2023-03-04T03:27:35;0.17;;;0.10;;
20655;SDS011;10487;53.320;8.672;2023-03-04T03:30:36;0.10;;;0.10;;
20655;SDS011;10487;53.320;8.672;2023-03-04T03:33:38;0.10;;;0.10;;
20655;SDS011;10487;53.320;8.672;2023-03-04T03:36:39;0.38;;;0.10;;
20655;SDS011;10487;53.320;8.672;2023-03-04T03:39:41;0.20;;;0.20;;
20655;SDS011;10487;53.320;8.672;2023-03-04T03:42:43;0.20;;;0.20;;
20655;SDS011;10487;53.320;8.672;2023-03-04T03:45:44;0.20;;;0.20;;
20655;SDS011;10487;53.320;8.672;2023-03-04T03:48:46;0.20;;;0.20;;
20655;SDS011;10487;53.320;8.672;2023-03-04T03:51:48;0.20;;;0.20;;
20655;SDS011;10487;53.320;8.672;2023-03-04T03:54:49;0.15;;;0.10;;
20655;SDS011;10487;53.320;8.672;2023-03-04T03:57:51;0.13;;;0.13;;
20655;SDS011;10487;53.320;8.672;2023-03-04T04:00:53;0.10;;;0.10;;
20655;SDS011;10487;53.320;8.672;2023-03-04T04:03:58;0.10;;;0.10;;
20655;SDS011;10487;53.320;8.672;2023-03-04T04:07:00;0.20;;;0.20;;
20655;SDS011;10487;53.320;8.672;2023-03-04T04:10:02;0.73;;;0.10;;
20655;SDS011;10487;53.320;8.672;2023-03-04T04:13:05;0.10;;;0.10;;
20655;SDS011;10487;53.320;8.672;2023-03-04T04:16:07;0.20;;;0.20;;
20655;SDS011;10487;53.320;8.672;2023-03-04T04:19:17;0.32;;;0.20;;
20655;SDS011;10487;53.320;8.672;2023-03-04T04:22:20;0.20;;;0.15;;
20655;SDS011;10487;53.320;8.672;2023-03-04T04:25:21;0.10;;;0.10;;
20655;SDS011;10487;53.320;8.672;2023-03-04T04:28:23;0.10;;;0.10;;
20655;SDS011;10487;53.320;8.672;2023-03-04T04:31:25;0.10;;;0.10;;
20655;SDS011;10487;53.320;8.672;2023-03-04T04:34:26;0.10;;;0.10;;
20655;SDS011;10487;53.320;8.672;2023-03-04T04:37:28;0.15;;;0.15;;
20655;SDS011;10487;53.320;8.672;2023-03-04T04:40:30;0.10;;;0.10;;
20655;SDS011;10487;53.320;8.672;2023-03-04T04:43:31;0.10;;;0.10;;
20655;SDS011;10487;53.320;8.672;2023-03-04T04:46:33;0.17;;;0.10;;
20655;SDS011;10487;53.320;8.672;2023-03-04T04:49:35;0.20;;;0.20;;
20655;SDS011;10487;53.320;8.672;2023-03-04T04:52:37;0.10;;;0.10;;
20655;SDS011;10487;53.320;8.672;2023-03-04T04:55:38;0.10;;;0.10;;
20655;SDS011;10487;53.320;8.672;2023-03-04T04:58:40;0.15;;;0.15;;
20655;SDS011;10487;53.320;8.672;2023-03-04T05:01:43;0.10;;;0.10;;
20655;SDS011;10487;53.320;8.672;2023-03-04T05:04:44;0.20;;;0.20;;
20655;SDS011;10487;53.320;8.672;2023-03-04T05:07:46;0.10;;;0.10;;
20655;SDS011;10487;53.320;8.672;2023-03-04T05:10:48;0.63;;;0.30;;
20655;SDS011;10487;53.320;8.672;2023-03-04T05:13:49;0.20;;;0.20;;
20655;SDS011;10487;53.320;8.672;2023-03-04T05:16:51;0.20;;;0.20;;
20655;SDS011;10487;53.320;8.672;2023-03-04T05:19:53;0.20;;;0.20;;
20655;SDS011;10487;53.320;8.672;2023-03-04T05:22:54;0.10;;;0.10;;
20655;SDS011;10487;53.320;8.672;2023-03-04T05:25:56;0.10;;;0.10;;
20655;SDS011;10487;53.320;8.672;2023-03-04T05:28:58;0.17;;;0.17;;
20655;SDS011;10487;53.320;8.672;2023-03-04T05:31:59;0.20;;;0.20;;
20655;SDS011;10487;53.320;8.672;2023-03-04T05:35:01;0.10;;;0.10;;
20655;SDS011;10487;53.320;8.672;2023-03-04T05:38:03;0.20;;;0.20;;
20655;SDS011;10487;53.320;8.672;2023-03-04T05:41:06;0.10;;;0.10;;
20655;SDS011;10487;53.320;8.672;2023-03-04T05:44:08;0.32;;;0.15;;
20655;SDS011;10487;53.320;8.672;2023-03-04T05:47:10;0.10;;;0.10;;
20655;SDS011;10487;53.320;8.672;2023-03-04T05:50:11;0.43;;;0.15;;
20655;SDS011;10487;53.320;8.672;2023-03-04T05:53:13;0.20;;;0.20;;
20655;SDS011;10487;53.320;8.672;2023-03-04T05:56:16;0.10;;;0.10;;
20655;SDS011;10487;53.320;8.672;2023-03-04T05:59:18;0.10;;;0.10;;
20655;SDS011;10487;53.320;8.672;2023-03-04T06:02:21;0.20;;;0.10;;
20655;SDS011;10487;53.320;8.672;2023-03-04T06:05:22;0.10;;;0.10;;
20655;SDS011;10487;53.320;8.672;2023-03-04T06:08:24;0.28;;;0.20;;
20655;SDS011;10487;53.320;8.672;2023-03-04T06:11:26;0.20;;;0.20;;
20655;SDS011;10487;53.320;8.672;2023-03-04T06:14:28;0.13;;;0.13;;
20655;SDS011;10487;53.320;8.672;2023-03-04T06:17:29;0.10;;;0.10;;
20655;SDS011;10487;53.320;8.672;2023-03-04T06:20:31;0.38;;;0.20;;
20655;SDS011;10487;53.320;8.672;2023-03-04T06:23:32;1.08;;;0.20;;
20655;SDS011;10487;53.320;8.672;2023-03-04T06:26:34;0.20;;;0.20;;
20655;SDS011;10487;53.320;8.672;2023-03-04T06:29:36;0.20;;;0.20;;
20655;SDS011;10487;53.320;8.672;2023-03-04T06:32:37;0.20;;;0.20;;
20655;SDS011;10487;53.320;8.672;2023-03-04T06:35:39;0.10;;;0.10;;
20655;SDS011;10487;53.320;8.672;2023-03-04T06:38:40;0.22;;;0.22;;
20655;SDS011;10487;53.320;8.672;2023-03-04T06:41:42;0.13;;;0.13;;
20655;SDS011;10487;53.320;8.672;2023-03-04T06:44:43;0.20;;;0.20;;
20655;SDS011;10487;53.320;8.672;2023-03-04T06:47:45;0.20;;;0.20;;
20655;SDS011;10487;53.320;8.672;2023-03-04T06:50:47;0.17;;;0.17;;
20655;SDS011;10487;53.320;8.672;2023-03-04T06:53:48;0.10;;;0.10;;
20655;SDS011;10487;53.320;8.672;2023-03-04T06:56:50;0.20;;;0.20;;
20655;SDS011;10487;53.320;8.672;2023-03-04T06:59:52;0.20;;;0.20;;
20655;SDS011;10487;53.320;8.672;2023-03-04T07:02:54;0.30;;;0.20;;
20655;SDS011;10487;53.320;8.672;2023-03-04T07:05:55;0.10;;;0.10;;
20655;SDS011;10487;53.320;8.672;2023-03-04T07:08:57;0.13;;;0.13;;
20655;SDS011;10487;53.320;8.672;2023-03-04T07:11:59;0.30;;;0.10;;
20655;SDS011;10487;53.320;8.672;2023-03-04T07:15:00;0.20;;;0.20;;
20655;SDS011;10487;53.320;8.672;2023-03-04T07:18:02;0.20;;;0.20;;
20655;SDS011;10487;53.320;8.672;2023-03-04T07:21:04;0.17;;;0.17;;
20655;SDS011;10487;53.320;8.672;2023-03-04T07:24:07;0.20;;;0.20;;
20655;SDS011;10487;53.320;8.672;2023-03-04T07:27:08;0.65;;;0.22;;
20655;SDS011;10487;53.320;8.672;2023-03-04T07:30:10;0.20;;;0.20;;
20655;SDS011;10487;53.320;8.672;2023-03-04T07:33:12;0.17;;;0.17;;
20655;SDS011;10487;53.320;8.672;2023-03-04T07:36:14;0.28;;;0.20;;
20655;SDS011;10487;53.320;8.672;2023-03-04T07:39:16;0.20;;;0.20;;
20655;SDS011;10487;53.320;8.672;2023-03-04T07:42:18;0.10;;;0.10;;
20655;SDS011;10487;53.320;8.672;2023-03-04T07:45:20;0.90;;;0.20;;
20655;SDS011;10487;53.320;8.672;2023-03-04T07:48:22;0.10;;;0.10;;
20655;SDS011;10487;53.320;8.672;2023-03-04T07:51:24;0.13;;;0.13;;
20655;SDS011;10487;53.320;8.672;2023-03-04T07:54:27;0.38;;;0.20;;
20655;SDS011;10487;53.320;8.672;2023-03-04T07:57:28;0.10;;;0.10;;
20655;SDS011;10487;53.320;8.672;2023-03-04T08:00:30;0.20;;;0.20;;
20655;SDS011;10487;53.320;8.672;2023-03-04T08:03:31;0.55;;;0.30;;
20655;SDS011;10487;53.320;8.672;2023-03-04T08:06:33;0.20;;;0.20;;
20655;SDS011;10487;53.320;8.672;2023-03-04T08:09:35;0.65;;;0.20;;
20655;SDS011;10487;53.320;8.672;2023-03-04T08:12:37;0.20;;;0.20;;
20655;SDS011;10487;53.320;8.672;2023-03-04T08:15:39;0.20;;;0.20;;
20655;SDS011;10487;53.320;8.672;2023-03-04T08:18:43;0.20;;;0.20;;
20655;SDS011;10487;53.320;8.672;2023-03-04T08:21:46;0.20;;;0.20;;
20655;SDS011;10487;53.320;8.672;2023-03-04T08:24:48;0.32;;;0.20;;
20655;SDS011;10487;53.320;8.672;2023-03-04T08:27:49;0.17;;;0.10;;
20655;SDS011;10487;53.320;8.672;2023-03-04T08:30:51;0.10;;;0.10;;
20655;SDS011;10487;53.320;8.672;2023-03-04T08:33:54;0.30;;;0.20;;
20655;SDS011;10487;53.320;8.672;2023-03-04T08:36:56;0.10;;;0.10;;
20655;SDS011;10487;53.320;8.672;2023-03-04T08:39:58;0.35;;;0.20;;
20655;SDS011;10487;53.320;8.672;2023-03-04T08:42:59;0.22;;;0.20;;
20655;SDS011;10487;53.320;8.672;2023-03-04T08:46:01;0.10;;;0.10;;
20655;SDS011;10487;53.320;8.672;2023-03-04T08:49:04;0.68;;;0.30;;
20655;SDS011;10487;53.320;8.672;2023-03-04T08:52:06;0.45;;;0.20;;
20655;SDS011;10487;53.320;8.672;2023-03-04T08:55:07;0.20;;;0.20;;
20655;SDS011;10487;53.320;8.672;2023-03-04T08:58:09;0.10;;;0.10;;
20655;SDS011;10487;53.320;8.672;2023-03-04T09:01:12;0.20;;;0.20;;
20655;SDS011;10487;53.320;8.672;2023-03-04T09:04:14;0.20;;;0.20;;
20655;SDS011;10487;53.320;8.672;2023-03-04T09:07:16;0.20;;;0.20;;
20655;SDS011;10487;53.320;8.672;2023-03-04T09:10:18;0.43;;;0.20;;
20655;SDS011;10487;53.320;8.672;2023-03-04T09:13:21;0.13;;;0.10;;
20655;SDS011;10487;53.320;8.672;2023-03-04T09:16:26;0.20;;;0.20;;
20655;SDS011;10487;53.320;8.672;2023-03-04T09:19:28;0.20;;;0.20;;
20655;SDS011;10487;53.320;8.672;2023-03-04T09:22:30;0.30;;;0.20;;
20655;SDS011;10487;53.320;8.672;2023-03-04T09:25:31;0.47;;;0.20;;
20655;SDS011;10487;53.320;8.672;2023-03-04T09:28:33;0.10;;;0.10;;
20655;SDS011;10487;53.320;8.672;2023-03-04T09:31:34;0.57;;;0.22;;
20655;SDS011;10487;53.320;8.672;2023-03-04T09:34:38;0.20;;;0.20;;
20655;SDS011;10487;53.320;8.672;2023-03-04T09:37:40;0.20;;;0.20;;
20655;SDS011;10487;53.320;8.672;2023-03-04T09:40:43;0.30;;;0.20;;
20655;SDS011;10487;53.320;8.672;2023-03-04T09:43:47;0.20;;;0.20;;
20655;SDS011;10487;53.320;8.672;2023-03-04T09:46:50;0.25;;;0.20;;
20655;SDS011;10487;53.320;8.672;2023-03-04T09:50:00;0.40;;;0.10;;
20655;SDS011;10487;53.320;8.672;2023-03-04T09:56:14;0.35;;;0.30;;
20655;SDS011;10487;53.320;8.672;2023-03-04T10:05:59;0.25;;;0.20;;
20655;SDS011;10487;53.320;8.672;2023-03-04T10:09:12;0.35;;;0.20;;
20655;SDS011;10487;53.320;8.672;2023-03-04T10:12:29;0.20;;;0.20;;
20655;SDS011;10487;53.320;8.672;2023-03-04T10:15:39;0.55;;;0.20;;
20655;SDS011;10487;53.320;8.672;2023-03-04T10:19:10;0.47;;;0.20;;
20655;SDS011;10487;53.320;8.672;2023-03-04T10:25:43;0.40;;;0.30;;
20655;SDS011;10487;53.320;8.672;2023-03-04T10:28:47;0.10;;;0.10;;
20655;SDS011;10487;53.320;8.672;2023-03-04T10:31:49;0.22;;;0.22;;
20655;SDS011;10487;53.320;8.672;2023-03-04T10:34:52;0.52;;;0.20;;
20655;SDS011;10487;53.320;8.672;2023-03-04T10:37:53;0.20;;;0.20;;
20655;SDS011;10487;53.320;8.672;2023-03-04T10:40:55;0.20;;;0.20;;
20655;SDS011;10487;53.320;8.672;2023-03-04T10:47:02;0.20;;;0.20;;
20655;SDS011;10487;53.320;8.672;2023-03-04T10:50:12;0.20;;;0.20;;
20655;SDS011;10487;53.320;8.672;2023-03-04T10:53:30;0.50;;;0.20;;
20655;SDS011;10487;53.320;8.672;2023-03-04T10:56:40;2.53;;;0.45;;
20655;SDS011;10487;53.320;8.672;2023-03-04T11:02:50;0.20;;;0.20;;
20655;SDS011;10487;53.320;8.672;2023-03-04T11:06:06;0.22;;;0.10;;
20655;SDS011;10487;53.320;8.672;2023-03-04T11:09:29;0.10;;;0.10;;
20655;SDS011;10487;53.320;8.672;2023-03-04T11:12:32;0.20;;;0.20;;
20655;SDS011;10487;53.320;8.672;2023-03-04T11:15:51;1.30;;;0.30;;
20655;SDS011;10487;53.320;8.672;2023-03-04T11:19:05;1.10;;;0.63;;
20655;SDS011;10487;53.320;8.672;2023-03-04T11:22:15;0.20;;;0.20;;
20655;SDS011;10487;53.320;8.672;2023-03-04T11:25:26;0.20;;;0.20;;
20655;SDS011;10487;53.320;8.672;2023-03-04T11:28:41;0.38;;;0.20;;
20655;SDS011;10487;53.320;8.672;2023-03-04T11:31:49;0.10;;;0.10;;
20655;SDS011;10487;53.320;8.672;2023-03-04T11:35:05;0.20;;;0.20;;
20655;SDS011;10487;53.320;8.672;2023-03-04T11:38:18;0.20;;;0.20;;
20655;SDS011;10487;53.320;8.672;2023-03-04T11:41:34;0.20;;;0.20;;
20655;SDS011;10487;53.320;8.672;2023-03-04T11:44:39;0.10;;;0.10;;
20655;SDS011;10487;53.320;8.672;2023-03-04T11:51:02;0.52;;;0.20;;
20655;SDS011;10487;53.320;8.672;2023-03-04T11:54:15;0.52;;;0.20;;
20655;SDS011;10487;53.320;8.672;2023-03-04T12:00:53;0.20;;;0.20;;
20655;SDS011;10487;53.320;8.672;2023-03-04T12:04:16;0.20;;;0.20;;
20655;SDS011;10487;53.320;8.672;2023-03-04T12:10:57;0.17;;;0.17;;
20655;SDS011;10487;53.320;8.672;2023-03-04T12:33:50;0.80;;;0.30;;
20655;SDS011;10487;53.320;8.672;2023-03-04T12:43:50;0.10;;;0.10;;
20655;SDS011;10487;53.320;8.672;2023-03-04T12:53:32;0.22;;;0.10;;
20655;SDS011;10487;53.320;8.672;2023-03-04T12:56:38;1.55;;;0.40;;
20655;SDS011;10487;53.320;8.672;2023-03-04T13:10:17;0.10;;;0.10;;
20655;SDS011;10487;53.320;8.672;2023-03-04T13:16:47;0.25;;;0.25;;
20655;SDS011;10487;53.320;8.672;2023-03-04T13:20:35;0.45;;;0.30;;
20655;SDS011;10487;53.320;8.672;2023-03-04T13:23:27;0.10;;;0.10;;
20655;SDS011;10487;53.320;8.672;2023-03-04T13:26:32;0.22;;;0.20;;
20655;SDS011;10487;53.320;8.672;2023-03-04T13:29:34;0.17;;;0.17;;
20655;SDS011;10487;53.320;8.672;2023-03-04T13:32:37;0.20;;;0.20;;
20655;SDS011;10487;53.320;8.672;2023-03-04T13:38:56;0.20;;;0.20;;
20655;SDS011;10487;53.320;8.672;2023-03-04T13:42:00;0.17;;;0.17;;
20655;SDS011;10487;53.320;8.672;2023-03-04T13:45:03;0.10;;;0.10;;
20655;SDS011;10487;53.320;8.672;2023-03-04T13:48:25;0.57;;;0.45;;
20655;SDS011;10487;53.320;8.672;2023-03-04T13:54:44;0.55;;;0.20;;
20655;SDS011;10487;53.320;8.672;2023-03-04T13:57:49;0.52;;;0.28;;
20655;SDS011;10487;53.320;8.672;2023-03-04T14:00:52;0.10;;;0.10;;
20655;SDS011;10487;53.320;8.672;2023-03-04T14:03:55;0.65;;;0.20;;
20655;SDS011;10487;53.320;8.672;2023-03-04T14:06:57;0.20;;;0.10;;
20655;SDS011;10487;53.320;8.672;2023-03-04T14:13:15;0.20;;;0.17;;
20655;SDS011;10487;53.320;8.672;2023-03-04T14:16:20;0.17;;;0.15;;
20655;SDS011;10487;53.320;8.672;2023-03-04T14:19:28;0.20;;;0.20;;
20655;SDS011;10487;53.320;8.672;2023-03-04T14:22:37;0.20;;;0.10;;
20655;SDS011;10487;53.320;8.672;2023-03-04T14:25:40;0.10;;;0.10;;
20655;SDS011;10487;53.320;8.672;2023-03-04T14:28:42;0.20;;;0.20;;
20655;SDS011;10487;53.320;8.672;2023-03-04T14:31:52;0.10;;;0.10;;
20655;SDS011;10487;53.320;8.672;2023-03-04T14:35:02;0.10;;;0.10;;
20655;SDS011;10487;53.320;8.672;2023-03-04T14:38:11;0.10;;;0.10;;
20655;SDS011;10487;53.320;8.672;2023-03-04T14:44:34;0.13;;;0.13;;
20655;SDS011;10487;53.320;8.672;2023-03-04T14:47:41;0.20;;;0.20;;
20655;SDS011;10487;53.320;8.672;2023-03-04T14:50:50;0.57;;;0.20;;
20655;SDS011;10487;53.320;8.672;2023-03-04T14:53:54;0.20;;;0.20;;
20655;SDS011;10487;53.320;8.672;2023-03-04T14:56:57;0.20;;;0.20;;
20655;SDS011;10487;53.320;8.672;2023-03-04T15:03:42;0.38;;;0.10;;
20655;SDS011;10487;53.320;8.672;2023-03-04T15:06:53;0.30;;;0.30;;
20655;SDS011;10487;53.320;8.672;2023-03-04T15:09:54;0.90;;;0.20;;
20655;SDS011;10487;53.320;8.672;2023-03-04T15:12:57;0.40;;;0.20;;
20655;SDS011;10487;53.320;8.672;2023-03-04T15:16:01;0.20;;;0.20;;
20655;SDS011;10487;53.320;8.672;2023-03-04T15:19:04;0.13;;;0.13;;
20655;SDS011;10487;53.320;8.672;2023-03-04T15:22:23;0.20;;;0.20;;
20655;SDS011;10487;53.320;8.672;2023-03-04T15:25:25;0.20;;;0.10;;
20655;SDS011;10487;53.320;8.672;2023-03-04T15:28:34;0.20;;;0.20;;
20655;SDS011;10487;53.320;8.672;2023-03-04T15:31:37;0.10;;;0.10;;
20655;SDS011;10487;53.320;8.672;2023-03-04T15:34:39;0.20;;;0.20;;
20655;SDS011;10487;53.320;8.672;2023-03-04T15:37:41;0.15;;;0.15;;
20655;SDS011;10487;53.320;8.672;2023-03-04T15:40:43;0.20;;;0.20;;
20655;SDS011;10487;53.320;8.672;2023-03-04T15:43:44;0.15;;;0.15;;
20655;SDS011;10487;53.320;8.672;2023-03-04T15:46:46;0.38;;;0.20;;
20655;SDS011;10487;53.320;8.672;2023-03-04T15:49:48;0.20;;;0.20;;
20655;SDS011;10487;53.320;8.672;2023-03-04T15:52:50;0.15;;;0.15;;
20655;SDS011;10487;53.320;8.672;2023-03-04T15:55:52;0.20;;;0.20;;
20655;SDS011;10487;53.320;8.672;2023-03-04T16:02:25;0.30;;;0.20;;
20655;SDS011;10487;53.320;8.672;2023-03-04T16:05:33;0.20;;;0.20;;
20655;SDS011;10487;53.320;8.672;2023-03-04T16:08:37;0.10;;;0.10;;
20655;SDS011;10487;53.320;8.672;2023-03-04T16:11:41;1.25;;;0.40;;
20655;SDS011;10487;53.320;8.672;2023-03-04T16:14:45;0.10;;;0.10;;
20655;SDS011;10487;53.320;8.672;2023-03-04T16:17:47;0.20;;;0.20;;
20655;SDS011;10487;53.320;8.672;2023-03-04T16:20:49;0.20;;;0.20;;
20655;SDS011;10487;53.320;8.672;2023-03-04T16:23:51;0.80;;;0.10;;
20655;SDS011;10487;53.320;8.672;2023-03-04T16:26:54;0.17;;;0.15;;
20655;SDS011;10487;53.320;8.672;2023-03-04T16:29:56;0.17;;;0.10;;
20655;SDS011;10487;53.320;8.672;2023-03-04T16:32:57;0.10;;;0.10;;
20655;SDS011;10487;53.320;8.672;2023-03-04T16:35:59;0.20;;;0.20;;
20655;SDS011;10487;53.320;8.672;2023-03-04T16:39:02;0.10;;;0.10;;
20655;SDS011;10487;53.320;8.672;2023-03-04T16:42:09;0.20;;;0.20;;
20655;SDS011;10487;53.320;8.672;2023-03-04T16:45:22;0.22;;;0.15;;
20655;SDS011;10487;53.320;8.672;2023-03-04T16:48:26;0.20;;;0.20;;
20655;SDS011;10487;53.320;8.672;2023-03-04T16:51:27;0.10;;;0.10;;
20655;SDS011;10487;53.320;8.672;2023-03-04T16:54:31;0.28;;;0.20;;
20655;SDS011;10487;53.320;8.672;2023-03-04T16:57:34;0.20;;;0.20;;
20655;SDS011;10487;53.320;8.672;2023-03-04T17:00:36;0.10;;;0.10;;
20655;SDS011;10487;53.320;8.672;2023-03-04T17:03:38;0.20;;;0.20;;
20655;SDS011;10487;53.320;8.672;2023-03-04T17:06:39;0.20;;;0.20;;
20655;SDS011;10487;53.320;8.672;2023-03-04T17:09:41;0.17;;;0.17;;
20655;SDS011;10487;53.320;8.672;2023-03-04T17:12:43;0.30;;;0.30;;
20655;SDS011;10487;53.320;8.672;2023-03-04T17:15:45;0.30;;;0.25;;
20655;SDS011;10487;53.320;8.672;2023-03-04T17:18:47;0.20;;;0.20;;
20655;SDS011;10487;53.320;8.672;2023-03-04T17:21:49;0.25;;;0.25;;
20655;SDS011;10487;53.320;8.672;2023-03-04T17:24:51;0.93;;;0.50;;
20655;SDS011;10487;53.320;8.672;2023-03-04T17:27:52;0.70;;;0.40;;
20655;SDS011;10487;53.320;8.672;2023-03-04T17:30:54;1.05;;;0.50;;
20655;SDS011;10487;53.320;8.672;2023-03-04T17:33:55;0.98;;;0.50;;
20655;SDS011;10487;53.320;8.672;2023-03-04T17:36:58;0.65;;;0.40;;
20655;SDS011;10487;53.320;8.672;2023-03-04T17:40:00;1.33;;;0.60;;
20655;SDS011;10487;53.320;8.672;2023-03-04T17:43:03;1.15;;;0.60;;
20655;SDS011;10487;53.320;8.672;2023-03-04T17:46:12;1.23;;;0.50;;
20655;SDS011;10487;53.320;8.672;2023-03-04T17:49:15;0.80;;;0.40;;
20655;SDS011;10487;53.320;8.672;2023-03-04T17:52:17;2.70;;;1.02;;
20655;SDS011;10487;53.320;8.672;2023-03-04T17:55:19;2.15;;;1.05;;
20655;SDS011;10487;53.320;8.672;2023-03-04T17:58:21;1.20;;;0.68;;
20655;SDS011;10487;53.320;8.672;2023-03-04T18:01:24;1.55;;;0.60;;
20655;SDS011;10487;53.320;8.672;2023-03-04T18:04:25;1.33;;;0.60;;
20655;SDS011;10487;53.320;8.672;2023-03-04T18:07:27;0.85;;;0.50;;
20655;SDS011;10487;53.320;8.672;2023-03-04T18:10:29;0.95;;;0.60;;
20655;SDS011;10487;53.320;8.672;2023-03-04T18:13:31;0.75;;;0.40;;
20655;SDS011;10487;53.320;8.672;2023-03-04T18:16:32;0.40;;;0.40;;
20655;SDS011;10487;53.320;8.672;2023-03-04T18:19:34;0.25;;;0.25;;
20655;SDS011;10487;53.320;8.672;2023-03-04T18:22:36;0.32;;;0.30;;
20655;SDS011;10487;53.320;8.672;2023-03-04T18:25:38;0.50;;;0.30;;
20655;SDS011;10487;53.320;8.672;2023-03-04T18:28:39;0.65;;;0.30;;
20655;SDS011;10487;53.320;8.672;2023-03-04T18:31:41;0.40;;;0.20;;
20655;SDS011;10487;53.320;8.672;2023-03-04T18:34:43;0.57;;;0.40;;
20655;SDS011;10487;53.320;8.672;2023-03-04T18:37:45;0.80;;;0.40;;
20655;SDS011;10487;53.320;8.672;2023-03-04T18:40:46;0.30;;;0.30;;
20655;SDS011;10487;53.320;8.672;2023-03-04T18:43:48;0.20;;;0.20;;
20655;SDS011;10487;53.320;8.672;2023-03-04T18:46:51;0.20;;;0.20;;
20655;SDS011;10487;53.320;8.672;2023-03-04T18:49:56;0.25;;;0.25;;
20655;SDS011;10487;53.320;8.672;2023-03-04T18:52:57;0.30;;;0.30;;
20655;SDS011;10487;53.320;8.672;2023-03-04T18:56:09;0.22;;;0.22;;
20655;SDS011;10487;53.320;8.672;2023-03-04T18:59:30;0.30;;;0.20;;
20655;SDS011;10487;53.320;8.672;2023-03-04T19:02:50;0.20;;;0.20;;
20655;SDS011;10487;53.320;8.672;2023-03-04T19:06:00;0.20;;;0.20;;
20655;SDS011;10487;53.320;8.672;2023-03-04T19:09:02;0.20;;;0.20;;
20655;SDS011;10487;53.320;8.672;2023-03-04T19:12:05;0.20;;;0.20;;
20655;SDS011;10487;53.320;8.672;2023-03-04T19:15:07;0.30;;;0.20;;
20655;SDS011;10487;53.320;8.672;2023-03-04T19:18:10;0.20;;;0.20;;
20655;SDS011;10487;53.320;8.672;2023-03-04T19:21:12;0.17;;;0.17;;
20655;SDS011;10487;53.320;8.672;2023-03-04T19:24:13;0.20;;;0.20;;
20655;SDS011;10487;53.320;8.672;2023-03-04T19:27:15;0.20;;;0.20;;
20655;SDS011;10487;53.320;8.672;2023-03-04T19:30:16;0.10;;;0.10;;
20655;SDS011;10487;53.320;8.672;2023-03-04T19:33:18;0.10;;;0.10;;
20655;SDS011;10487;53.320;8.672;2023-03-04T19:36:20;0.10;;;0.10;;
20655;SDS011;10487;53.320;8.672;2023-03-04T19:39:22;0.10;;;0.10;;
20655;SDS011;10487;53.320;8.672;2023-03-04T19:42:23;0.10;;;0.10;;
20655;SDS011;10487;53.320;8.672;2023-03-04T19:45:25;0.10;;;0.10;;
20655;SDS011;10487;53.320;8.672;2023-03-04T19:48:27;0.20;;;0.20;;
20655;SDS011;10487;53.320;8.672;2023-03-04T19:51:29;0.20;;;0.20;;
20655;SDS011;10487;53.320;8.672;2023-03-04T19:54:32;0.20;;;0.20;;
20655;SDS011;10487;53.320;8.672;2023-03-04T19:57:34;0.20;;;0.20;;
20655;SDS011;10487;53.320;8.672;2023-03-04T20:00:36;0.22;;;0.10;;
20655;SDS011;10487;53.320;8.672;2023-03-04T20:03:38;0.17;;;0.17;;
20655;SDS011;10487;53.320;8.672;2023-03-04T20:06:41;0.20;;;0.20;;